sensor_id;sensor_type;location;lat;lon;timestamp;P1;durP1;ratioP1;P2;durP2;ratioP2
78410;SDS011;67706;51.074;-1.796;2023-07-29T00:01:57;6.45;;;1.42;;
78410;SDS011;67706;51.074;-1.796;2023-07-29T00:04:23;5.72;;;1.80;;
78410;SDS011;67706;51.074;-1.796;2023-07-29T00:06:50;5.20;;;2.08;;
78410;SDS011;67706;51.074;-1.796;2023-07-29T00:09:18;3.92;;;1.67;;
78410;SDS011;67706;51.074;-1.796;2023-07-29T00:11:45;4.80;;;1.60;;
78410;SDS011;67706;51.074;-1.796;2023-07-29T00:14:11;4.05;;;1.45;;
78410;SDS011;67706;51.074;-1.796;2023-07-29T00:16:38;7.13;;;1.92;;
78410;SDS011;67706;51.074;-1.796;2023-07-29T00:19:04;5.20;;;1.73;;
78410;SDS011;67706;51.074;-1.796;2023-07-29T00:21:31;5.85;;;1.73;;
78410;SDS011;67706;51.074;-1.796;2023-07-29T00:23:58;4.20;;;1.60;;
78410;SDS011;67706;51.074;-1.796;2023-07-29T00:26:27;2.72;;;1.50;;
78410;SDS011;67706;51.074;-1.796;2023-07-29T00:28:54;5.65;;;1.40;;
78410;SDS011;67706;51.074;-1.796;2023-07-29T00:31:21;4.85;;;1.50;;
78410;SDS011;67706;51.074;-1.796;2023-07-29T00:33:48;3.88;;;1.50;;
78410;SDS011;67706;51.074;-1.796;2023-07-29T00:36:15;4.60;;;1.58;;
78410;SDS011;67706;51.074;-1.796;2023-07-29T00:38:41;6.85;;;1.75;;
78410;SDS011;67706;51.074;-1.796;2023-07-29T00:41:08;4.57;;;1.75;;
78410;SDS011;67706;51.074;-1.796;2023-07-29T00:43:39;4.75;;;1.52;;
78410;SDS011;67706;51.074;-1.796;2023-07-29T00:46:06;5.25;;;1.55;;
78410;SDS011;67706;51.074;-1.796;2023-07-29T00:48:34;8.15;;;1.80;;
78410;SDS011;67706;51.074;-1.796;2023-07-29T00:51:01;4.15;;;1.42;;
78410;SDS011;67706;51.074;-1.796;2023-07-29T00:53:28;4.78;;;1.70;;
78410;SDS011;67706;51.074;-1.796;2023-07-29T00:55:55;7.32;;;1.92;;
78410;SDS011;67706;51.074;-1.796;2023-07-29T00:58:22;3.08;;;1.40;;
78410;SDS011;67706;51.074;-1.796;2023-07-29T01:00:50;4.25;;;1.75;;
78410;SDS011;67706;51.074;-1.796;2023-07-29T01:03:16;5.38;;;1.42;;
78410;SDS011;67706;51.074;-1.796;2023-07-29T01:05:46;5.43;;;1.80;;
78410;SDS011;67706;51.074;-1.796;2023-07-29T01:08:27;3.60;;;1.50;;
78410;SDS011;67706;51.074;-1.796;2023-07-29T01:11:01;4.78;;;1.90;;
78410;SDS011;67706;51.074;-1.796;2023-07-29T01:13:39;5.95;;;1.65;;
78410;SDS011;67706;51.074;-1.796;2023-07-29T01:16:13;5.13;;;1.30;;
78410;SDS011;67706;51.074;-1.796;2023-07-29T01:18:43;5.05;;;1.70;;
78410;SDS011;67706;51.074;-1.796;2023-07-29T01:21:15;6.90;;;2.00;;
78410;SDS011;67706;51.074;-1.796;2023-07-29T01:23:45;8.48;;;1.92;;
78410;SDS011;67706;51.074;-1.796;2023-07-29T01:26:11;6.53;;;1.60;;
78410;SDS011;67706;51.074;-1.796;2023-07-29T01:28:38;5.10;;;1.65;;
78410;SDS011;67706;51.074;-1.796;2023-07-29T01:31:06;6.82;;;1.88;;
78410;SDS011;67706;51.074;-1.796;2023-07-29T01:33:38;5.68;;;1.60;;
78410;SDS011;67706;51.074;-1.796;2023-07-29T01:36:11;7.07;;;2.17;;
78410;SDS011;67706;51.074;-1.796;2023-07-29T01:38:40;5.88;;;1.85;;
78410;SDS011;67706;51.074;-1.796;2023-07-29T01:41:09;4.95;;;1.70;;
78410;SDS011;67706;51.074;-1.796;2023-07-29T01:43:37;5.53;;;1.98;;
78410;SDS011;67706;51.074;-1.796;2023-07-29T01:46:08;4.72;;;1.52;;
78410;SDS011;67706;51.074;-1.796;2023-07-29T01:48:35;6.28;;;1.60;;
78410;SDS011;67706;51.074;-1.796;2023-07-29T01:51:02;6.00;;;1.85;;
78410;SDS011;67706;51.074;-1.796;2023-07-29T01:53:29;7.07;;;1.55;;
78410;SDS011;67706;51.074;-1.796;2023-07-29T01:55:56;4.90;;;1.63;;
78410;SDS011;67706;51.074;-1.796;2023-07-29T01:58:24;4.70;;;1.60;;
78410;SDS011;67706;51.074;-1.796;2023-07-29T02:00:51;5.95;;;1.30;;
78410;SDS011;67706;51.074;-1.796;2023-07-29T02:03:17;3.72;;;1.50;;
78410;SDS011;67706;51.074;-1.796;2023-07-29T02:05:44;6.97;;;1.40;;
78410;SDS011;67706;51.074;-1.796;2023-07-29T02:08:11;5.07;;;1.38;;
78410;SDS011;67706;51.074;-1.796;2023-07-29T02:10:38;8.80;;;1.75;;
78410;SDS011;67706;51.074;-1.796;2023-07-29T02:13:04;7.65;;;1.35;;
78410;SDS011;67706;51.074;-1.796;2023-07-29T02:15:32;5.15;;;1.67;;
78410;SDS011;67706;51.074;-1.796;2023-07-29T02:17:59;5.22;;;1.50;;
78410;SDS011;67706;51.074;-1.796;2023-07-29T02:20:27;5.93;;;1.52;;
78410;SDS011;67706;51.074;-1.796;2023-07-29T02:22:53;8.43;;;1.80;;
78410;SDS011;67706;51.074;-1.796;2023-07-29T02:25:20;5.43;;;1.90;;
78410;SDS011;67706;51.074;-1.796;2023-07-29T02:27:47;5.13;;;1.52;;
78410;SDS011;67706;51.074;-1.796;2023-07-29T02:30:13;5.80;;;1.80;;
78410;SDS011;67706;51.074;-1.796;2023-07-29T02:32:41;4.90;;;1.42;;
78410;SDS011;67706;51.074;-1.796;2023-07-29T02:35:08;4.82;;;1.75;;
78410;SDS011;67706;51.074;-1.796;2023-07-29T02:37:35;6.82;;;1.63;;
78410;SDS011;67706;51.074;-1.796;2023-07-29T02:40:02;4.82;;;1.45;;
78410;SDS011;67706;51.074;-1.796;2023-07-29T02:42:30;5.63;;;1.92;;
78410;SDS011;67706;51.074;-1.796;2023-07-29T02:44:56;7.05;;;1.60;;
78410;SDS011;67706;51.074;-1.796;2023-07-29T02:47:24;3.88;;;1.55;;
78410;SDS011;67706;51.074;-1.796;2023-07-29T02:49:52;6.90;;;1.58;;
78410;SDS011;67706;51.074;-1.796;2023-07-29T02:52:18;5.20;;;1.88;;
78410;SDS011;67706;51.074;-1.796;2023-07-29T02:54:45;7.63;;;2.03;;
78410;SDS011;67706;51.074;-1.796;2023-07-29T02:57:13;6.10;;;2.45;;
78410;SDS011;67706;51.074;-1.796;2023-07-29T02:59:39;5.85;;;1.65;;
78410;SDS011;67706;51.074;-1.796;2023-07-29T03:02:06;7.45;;;1.88;;
78410;SDS011;67706;51.074;-1.796;2023-07-29T03:04:33;6.28;;;1.60;;
78410;SDS011;67706;51.074;-1.796;2023-07-29T03:07:01;4.70;;;1.42;;
78410;SDS011;67706;51.074;-1.796;2023-07-29T03:09:27;6.28;;;1.80;;
78410;SDS011;67706;51.074;-1.796;2023-07-29T03:11:54;5.38;;;1.88;;
78410;SDS011;67706;51.074;-1.796;2023-07-29T03:14:22;5.35;;;1.58;;
78410;SDS011;67706;51.074;-1.796;2023-07-29T03:16:48;5.85;;;2.00;;
78410;SDS011;67706;51.074;-1.796;2023-07-29T03:19:15;6.60;;;1.30;;
78410;SDS011;67706;51.074;-1.796;2023-07-29T03:21:42;8.35;;;2.33;;
78410;SDS011;67706;51.074;-1.796;2023-07-29T03:24:10;8.18;;;1.70;;
78410;SDS011;67706;51.074;-1.796;2023-07-29T03:26:36;7.53;;;1.90;;
78410;SDS011;67706;51.074;-1.796;2023-07-29T03:29:03;4.78;;;1.85;;
78410;SDS011;67706;51.074;-1.796;2023-07-29T03:31:30;7.15;;;1.90;;
78410;SDS011;67706;51.074;-1.796;2023-07-29T03:33:56;7.80;;;1.92;;
78410;SDS011;67706;51.074;-1.796;2023-07-29T03:36:23;3.97;;;1.70;;
78410;SDS011;67706;51.074;-1.796;2023-07-29T03:38:50;5.45;;;1.40;;
78410;SDS011;67706;51.074;-1.796;2023-07-29T03:41:18;6.53;;;1.88;;
78410;SDS011;67706;51.074;-1.796;2023-07-29T03:43:45;3.50;;;1.67;;
78410;SDS011;67706;51.074;-1.796;2023-07-29T03:46:12;5.90;;;1.55;;
78410;SDS011;67706;51.074;-1.796;2023-07-29T03:48:38;4.53;;;1.45;;
78410;SDS011;67706;51.074;-1.796;2023-07-29T03:51:05;6.35;;;1.80;;
78410;SDS011;67706;51.074;-1.796;2023-07-29T03:53:32;7.20;;;1.95;;
78410;SDS011;67706;51.074;-1.796;2023-07-29T03:55:58;7.55;;;1.98;;
78410;SDS011;67706;51.074;-1.796;2023-07-29T03:58:26;5.72;;;2.00;;
78410;SDS011;67706;51.074;-1.796;2023-07-29T04:00:53;4.38;;;1.92;;
78410;SDS011;67706;51.074;-1.796;2023-07-29T04:03:20;3.95;;;1.52;;
78410;SDS011;67706;51.074;-1.796;2023-07-29T04:05:46;4.82;;;1.63;;
78410;SDS011;67706;51.074;-1.796;2023-07-29T04:08:13;4.38;;;1.45;;
78410;SDS011;67706;51.074;-1.796;2023-07-29T04:10:40;7.32;;;2.17;;
78410;SDS011;67706;51.074;-1.796;2023-07-29T04:13:06;8.32;;;2.10;;
78410;SDS011;67706;51.074;-1.796;2023-07-29T04:15:34;8.35;;;1.90;;
78410;SDS011;67706;51.074;-1.796;2023-07-29T04:18:01;8.68;;;1.73;;
78410;SDS011;67706;51.074;-1.796;2023-07-29T04:20:28;6.75;;;1.88;;
78410;SDS011;67706;51.074;-1.796;2023-07-29T04:22:55;8.05;;;2.05;;
78410;SDS011;67706;51.074;-1.796;2023-07-29T04:25:22;4.32;;;1.70;;
78410;SDS011;67706;51.074;-1.796;2023-07-29T04:27:48;5.72;;;1.70;;
78410;SDS011;67706;51.074;-1.796;2023-07-29T04:30:15;6.47;;;2.00;;
78410;SDS011;67706;51.074;-1.796;2023-07-29T04:32:43;4.85;;;1.65;;
78410;SDS011;67706;51.074;-1.796;2023-07-29T04:35:13;4.30;;;2.15;;
78410;SDS011;67706;51.074;-1.796;2023-07-29T04:37:40;4.75;;;1.60;;
78410;SDS011;67706;51.074;-1.796;2023-07-29T04:40:07;5.47;;;1.88;;
78410;SDS011;67706;51.074;-1.796;2023-07-29T04:42:34;4.55;;;1.65;;
78410;SDS011;67706;51.074;-1.796;2023-07-29T04:45:02;5.18;;;1.50;;
78410;SDS011;67706;51.074;-1.796;2023-07-29T04:47:29;4.18;;;1.20;;
78410;SDS011;67706;51.074;-1.796;2023-07-29T04:49:57;4.60;;;1.63;;
78410;SDS011;67706;51.074;-1.796;2023-07-29T04:52:24;7.28;;;1.95;;
78410;SDS011;67706;51.074;-1.796;2023-07-29T04:54:51;4.28;;;1.90;;
78410;SDS011;67706;51.074;-1.796;2023-07-29T04:57:17;5.30;;;2.05;;
78410;SDS011;67706;51.074;-1.796;2023-07-29T04:59:44;4.18;;;1.80;;
78410;SDS011;67706;51.074;-1.796;2023-07-29T05:02:11;4.07;;;1.83;;
78410;SDS011;67706;51.074;-1.796;2023-07-29T05:04:37;5.38;;;1.65;;
78410;SDS011;67706;51.074;-1.796;2023-07-29T05:07:05;4.80;;;1.75;;
78410;SDS011;67706;51.074;-1.796;2023-07-29T05:09:32;3.45;;;1.77;;
78410;SDS011;67706;51.074;-1.796;2023-07-29T05:11:59;5.75;;;1.73;;
78410;SDS011;67706;51.074;-1.796;2023-07-29T05:14:25;4.22;;;1.75;;
78410;SDS011;67706;51.074;-1.796;2023-07-29T05:16:52;3.33;;;1.50;;
78410;SDS011;67706;51.074;-1.796;2023-07-29T05:19:19;3.67;;;1.48;;
78410;SDS011;67706;51.074;-1.796;2023-07-29T05:21:45;4.63;;;1.65;;
78410;SDS011;67706;51.074;-1.796;2023-07-29T05:24:13;4.53;;;1.27;;
78410;SDS011;67706;51.074;-1.796;2023-07-29T05:26:40;2.58;;;1.35;;
78410;SDS011;67706;51.074;-1.796;2023-07-29T05:29:07;4.35;;;1.40;;
78410;SDS011;67706;51.074;-1.796;2023-07-29T05:31:33;3.88;;;1.33;;
78410;SDS011;67706;51.074;-1.796;2023-07-29T05:34:00;3.60;;;1.48;;
78410;SDS011;67706;51.074;-1.796;2023-07-29T05:36:27;2.58;;;1.00;;
78410;SDS011;67706;51.074;-1.796;2023-07-29T05:38:54;3.67;;;1.20;;
78410;SDS011;67706;51.074;-1.796;2023-07-29T05:41:22;3.08;;;1.60;;
78410;SDS011;67706;51.074;-1.796;2023-07-29T05:43:49;3.25;;;1.10;;
78410;SDS011;67706;51.074;-1.796;2023-07-29T05:46:15;3.60;;;1.10;;
78410;SDS011;67706;51.074;-1.796;2023-07-29T05:48:42;3.25;;;1.08;;
78410;SDS011;67706;51.074;-1.796;2023-07-29T05:51:09;5.00;;;1.23;;
78410;SDS011;67706;51.074;-1.796;2023-07-29T05:53:35;2.90;;;1.60;;
78410;SDS011;67706;51.074;-1.796;2023-07-29T05:56:02;2.47;;;1.05;;
78410;SDS011;67706;51.074;-1.796;2023-07-29T05:58:30;3.40;;;1.48;;
78410;SDS011;67706;51.074;-1.796;2023-07-29T06:00:57;2.22;;;1.00;;
78410;SDS011;67706;51.074;-1.796;2023-07-29T06:03:23;2.85;;;1.08;;
78410;SDS011;67706;51.074;-1.796;2023-07-29T06:05:50;3.17;;;1.13;;
78410;SDS011;67706;51.074;-1.796;2023-07-29T06:08:17;2.92;;;1.00;;
78410;SDS011;67706;51.074;-1.796;2023-07-29T06:10:43;3.03;;;1.30;;
78410;SDS011;67706;51.074;-1.796;2023-07-29T06:13:10;3.03;;;1.80;;
78410;SDS011;67706;51.074;-1.796;2023-07-29T06:15:38;3.70;;;2.10;;
78410;SDS011;67706;51.074;-1.796;2023-07-29T06:18:05;2.97;;;1.17;;
78410;SDS011;67706;51.074;-1.796;2023-07-29T06:20:31;3.80;;;1.70;;
78410;SDS011;67706;51.074;-1.796;2023-07-29T06:22:58;7.00;;;1.90;;
78410;SDS011;67706;51.074;-1.796;2023-07-29T06:25:25;4.22;;;1.60;;
78410;SDS011;67706;51.074;-1.796;2023-07-29T06:27:51;5.35;;;1.90;;
78410;SDS011;67706;51.074;-1.796;2023-07-29T06:30:18;3.40;;;1.75;;
78410;SDS011;67706;51.074;-1.796;2023-07-29T06:32:46;3.08;;;1.27;;
78410;SDS011;67706;51.074;-1.796;2023-07-29T06:35:13;3.88;;;1.30;;
78410;SDS011;67706;51.074;-1.796;2023-07-29T06:37:39;2.70;;;1.55;;
78410;SDS011;67706;51.074;-1.796;2023-07-29T06:40:07;3.97;;;1.48;;
78410;SDS011;67706;51.074;-1.796;2023-07-29T06:42:34;4.30;;;1.55;;
78410;SDS011;67706;51.074;-1.796;2023-07-29T06:45:02;5.07;;;1.45;;
78410;SDS011;67706;51.074;-1.796;2023-07-29T06:47:29;2.90;;;1.20;;
78410;SDS011;67706;51.074;-1.796;2023-07-29T06:49:57;2.40;;;1.10;;
78410;SDS011;67706;51.074;-1.796;2023-07-29T06:52:24;4.03;;;1.35;;
78410;SDS011;67706;51.074;-1.796;2023-07-29T06:54:50;1.95;;;1.30;;
78410;SDS011;67706;51.074;-1.796;2023-07-29T06:57:17;3.65;;;1.50;;
78410;SDS011;67706;51.074;-1.796;2023-07-29T06:59:44;4.18;;;1.50;;
78410;SDS011;67706;51.074;-1.796;2023-07-29T07:02:11;2.95;;;1.45;;
78410;SDS011;67706;51.074;-1.796;2023-07-29T07:04:37;3.03;;;1.45;;
78410;SDS011;67706;51.074;-1.796;2023-07-29T07:07:06;4.15;;;1.42;;
78410;SDS011;67706;51.074;-1.796;2023-07-29T07:09:32;4.18;;;1.30;;
78410;SDS011;67706;51.074;-1.796;2023-07-29T07:11:59;4.45;;;1.70;;
78410;SDS011;67706;51.074;-1.796;2023-07-29T07:14:26;4.90;;;1.58;;
78410;SDS011;67706;51.074;-1.796;2023-07-29T07:16:52;7.32;;;1.58;;
78410;SDS011;67706;51.074;-1.796;2023-07-29T07:19:19;2.80;;;0.80;;
78410;SDS011;67706;51.074;-1.796;2023-07-29T07:21:46;4.65;;;1.27;;
78410;SDS011;67706;51.074;-1.796;2023-07-29T07:24:14;4.63;;;1.15;;
78410;SDS011;67706;51.074;-1.796;2023-07-29T07:26:40;7.60;;;1.50;;
78410;SDS011;67706;51.074;-1.796;2023-07-29T07:29:07;2.42;;;1.27;;
78410;SDS011;67706;51.074;-1.796;2023-07-29T07:31:34;5.70;;;1.80;;
78410;SDS011;67706;51.074;-1.796;2023-07-29T07:34:00;3.72;;;1.27;;
78410;SDS011;67706;51.074;-1.796;2023-07-29T07:36:28;3.92;;;1.77;;
78410;SDS011;67706;51.074;-1.796;2023-07-29T07:38:55;2.88;;;1.15;;
78410;SDS011;67706;51.074;-1.796;2023-07-29T07:41:23;5.60;;;1.23;;
78410;SDS011;67706;51.074;-1.796;2023-07-29T07:43:50;3.63;;;1.17;;
78410;SDS011;67706;51.074;-1.796;2023-07-29T07:46:17;7.15;;;1.50;;
78410;SDS011;67706;51.074;-1.796;2023-07-29T07:48:43;7.47;;;1.48;;
78410;SDS011;67706;51.074;-1.796;2023-07-29T07:51:10;4.72;;;1.50;;
78410;SDS011;67706;51.074;-1.796;2023-07-29T07:53:38;3.70;;;1.42;;
78410;SDS011;67706;51.074;-1.796;2023-07-29T07:56:05;4.63;;;1.10;;
78410;SDS011;67706;51.074;-1.796;2023-07-29T07:58:33;2.88;;;0.93;;
78410;SDS011;67706;51.074;-1.796;2023-07-29T08:01:01;1.30;;;0.90;;
78410;SDS011;67706;51.074;-1.796;2023-07-29T08:03:28;5.32;;;1.35;;
78410;SDS011;67706;51.074;-1.796;2023-07-29T08:05:55;5.07;;;1.30;;
78410;SDS011;67706;51.074;-1.796;2023-07-29T08:08:21;4.47;;;1.40;;
78410;SDS011;67706;51.074;-1.796;2023-07-29T08:10:48;5.70;;;1.52;;
78410;SDS011;67706;51.074;-1.796;2023-07-29T08:13:15;4.85;;;1.30;;
78410;SDS011;67706;51.074;-1.796;2023-07-29T08:15:43;6.40;;;1.38;;
78410;SDS011;67706;51.074;-1.796;2023-07-29T08:18:12;4.68;;;1.20;;
78410;SDS011;67706;51.074;-1.796;2023-07-29T08:20:39;6.28;;;1.33;;
78410;SDS011;67706;51.074;-1.796;2023-07-29T08:23:05;3.83;;;1.10;;
78410;SDS011;67706;51.074;-1.796;2023-07-29T08:25:32;2.47;;;1.23;;
78410;SDS011;67706;51.074;-1.796;2023-07-29T08:27:59;4.60;;;1.23;;
78410;SDS011;67706;51.074;-1.796;2023-07-29T08:30:25;5.90;;;1.40;;
78410;SDS011;67706;51.074;-1.796;2023-07-29T08:32:54;2.92;;;1.10;;
78410;SDS011;67706;51.074;-1.796;2023-07-29T08:35:20;2.78;;;1.00;;
78410;SDS011;67706;51.074;-1.796;2023-07-29T08:37:47;4.55;;;1.15;;
78410;SDS011;67706;51.074;-1.796;2023-07-29T08:40:13;3.40;;;1.13;;
78410;SDS011;67706;51.074;-1.796;2023-07-29T08:42:40;4.25;;;1.10;;
78410;SDS011;67706;51.074;-1.796;2023-07-29T08:45:11;2.88;;;0.88;;
78410;SDS011;67706;51.074;-1.796;2023-07-29T08:47:38;3.17;;;1.17;;
78410;SDS011;67706;51.074;-1.796;2023-07-29T08:50:06;1.88;;;1.02;;
78410;SDS011;67706;51.074;-1.796;2023-07-29T08:52:34;4.38;;;0.82;;
78410;SDS011;67706;51.074;-1.796;2023-07-29T08:55:02;6.78;;;1.33;;
78410;SDS011;67706;51.074;-1.796;2023-07-29T08:57:29;6.60;;;1.40;;
78410;SDS011;67706;51.074;-1.796;2023-07-29T08:59:56;3.40;;;1.23;;
78410;SDS011;67706;51.074;-1.796;2023-07-29T09:02:24;3.08;;;1.50;;
78410;SDS011;67706;51.074;-1.796;2023-07-29T09:04:51;2.80;;;1.10;;
78410;SDS011;67706;51.074;-1.796;2023-07-29T09:07:19;4.32;;;1.33;;
78410;SDS011;67706;51.074;-1.796;2023-07-29T09:09:46;3.20;;;0.95;;
78410;SDS011;67706;51.074;-1.796;2023-07-29T09:12:13;2.42;;;1.10;;
78410;SDS011;67706;51.074;-1.796;2023-07-29T09:14:40;6.07;;;1.30;;
78410;SDS011;67706;51.074;-1.796;2023-07-29T09:17:07;3.42;;;1.20;;
78410;SDS011;67706;51.074;-1.796;2023-07-29T09:19:36;5.03;;;1.27;;
78410;SDS011;67706;51.074;-1.796;2023-07-29T09:22:03;2.65;;;1.10;;
78410;SDS011;67706;51.074;-1.796;2023-07-29T09:24:31;5.15;;;1.05;;
78410;SDS011;67706;51.074;-1.796;2023-07-29T09:26:59;3.55;;;1.08;;
78410;SDS011;67706;51.074;-1.796;2023-07-29T09:29:27;2.75;;;0.75;;
78410;SDS011;67706;51.074;-1.796;2023-07-29T09:31:59;7.28;;;1.30;;
78410;SDS011;67706;51.074;-1.796;2023-07-29T09:34:45;5.75;;;1.02;;
78410;SDS011;67706;51.074;-1.796;2023-07-29T09:37:15;3.53;;;0.80;;
78410;SDS011;67706;51.074;-1.796;2023-07-29T09:39:45;4.57;;;1.00;;
78410;SDS011;67706;51.074;-1.796;2023-07-29T09:42:16;5.32;;;0.90;;
78410;SDS011;67706;51.074;-1.796;2023-07-29T09:44:43;6.43;;;0.93;;
78410;SDS011;67706;51.074;-1.796;2023-07-29T09:47:18;6.93;;;1.33;;
78410;SDS011;67706;51.074;-1.796;2023-07-29T09:49:45;6.78;;;0.90;;
78410;SDS011;67706;51.074;-1.796;2023-07-29T09:52:13;2.45;;;1.02;;
78410;SDS011;67706;51.074;-1.796;2023-07-29T09:54:41;3.95;;;0.90;;
78410;SDS011;67706;51.074;-1.796;2023-07-29T09:57:10;3.70;;;0.90;;
78410;SDS011;67706;51.074;-1.796;2023-07-29T09:59:37;3.85;;;1.30;;
78410;SDS011;67706;51.074;-1.796;2023-07-29T10:02:04;3.80;;;1.42;;
78410;SDS011;67706;51.074;-1.796;2023-07-29T10:04:30;6.80;;;1.60;;
78410;SDS011;67706;51.074;-1.796;2023-07-29T10:06:58;2.72;;;0.93;;
78410;SDS011;67706;51.074;-1.796;2023-07-29T10:09:26;3.03;;;0.80;;
78410;SDS011;67706;51.074;-1.796;2023-07-29T10:11:54;2.65;;;0.77;;
78410;SDS011;67706;51.074;-1.796;2023-07-29T10:14:24;3.17;;;0.85;;
78410;SDS011;67706;51.074;-1.796;2023-07-29T10:16:54;1.77;;;0.73;;
78410;SDS011;67706;51.074;-1.796;2023-07-29T10:19:22;3.97;;;0.80;;
78410;SDS011;67706;51.074;-1.796;2023-07-29T10:21:50;2.10;;;0.70;;
78410;SDS011;67706;51.074;-1.796;2023-07-29T10:24:18;2.90;;;0.90;;
78410;SDS011;67706;51.074;-1.796;2023-07-29T10:26:53;2.60;;;0.90;;
78410;SDS011;67706;51.074;-1.796;2023-07-29T10:29:27;1.17;;;0.50;;
78410;SDS011;67706;51.074;-1.796;2023-07-29T10:31:57;2.35;;;0.82;;
78410;SDS011;67706;51.074;-1.796;2023-07-29T10:34:27;3.10;;;0.60;;
78410;SDS011;67706;51.074;-1.796;2023-07-29T10:36:54;3.00;;;0.60;;
78410;SDS011;67706;51.074;-1.796;2023-07-29T10:39:21;4.28;;;0.70;;
78410;SDS011;67706;51.074;-1.796;2023-07-29T10:41:54;5.72;;;0.95;;
78410;SDS011;67706;51.074;-1.796;2023-07-29T10:47:19;4.43;;;0.98;;
78410;SDS011;67706;51.074;-1.796;2023-07-29T10:49:50;4.05;;;0.95;;
78410;SDS011;67706;51.074;-1.796;2023-07-29T10:52:29;3.08;;;0.73;;
78410;SDS011;67706;51.074;-1.796;2023-07-29T10:54:57;4.20;;;0.93;;
78410;SDS011;67706;51.074;-1.796;2023-07-29T10:57:30;4.90;;;1.00;;
78410;SDS011;67706;51.074;-1.796;2023-07-29T11:00:00;3.08;;;0.80;;
78410;SDS011;67706;51.074;-1.796;2023-07-29T11:02:28;3.67;;;0.80;;
78410;SDS011;67706;51.074;-1.796;2023-07-29T11:04:56;1.30;;;0.55;;
78410;SDS011;67706;51.074;-1.796;2023-07-29T11:07:26;2.97;;;0.50;;
78410;SDS011;67706;51.074;-1.796;2023-07-29T11:09:54;1.60;;;0.65;;
78410;SDS011;67706;51.074;-1.796;2023-07-29T11:15:02;2.67;;;0.50;;
78410;SDS011;67706;51.074;-1.796;2023-07-29T11:17:32;2.92;;;0.70;;
78410;SDS011;67706;51.074;-1.796;2023-07-29T11:20:00;1.55;;;0.55;;
78410;SDS011;67706;51.074;-1.796;2023-07-29T11:22:27;4.90;;;0.60;;
78410;SDS011;67706;51.074;-1.796;2023-07-29T11:24:54;4.10;;;1.35;;
78410;SDS011;67706;51.074;-1.796;2023-07-29T11:27:21;1.13;;;0.47;;
78410;SDS011;67706;51.074;-1.796;2023-07-29T11:29:48;2.28;;;0.40;;
78410;SDS011;67706;51.074;-1.796;2023-07-29T11:32:16;1.23;;;0.55;;
78410;SDS011;67706;51.074;-1.796;2023-07-29T11:34:43;4.35;;;0.70;;
78410;SDS011;67706;51.074;-1.796;2023-07-29T11:37:10;2.30;;;0.70;;
78410;SDS011;67706;51.074;-1.796;2023-07-29T11:39:39;3.90;;;0.80;;
78410;SDS011;67706;51.074;-1.796;2023-07-29T11:42:07;2.85;;;0.70;;
78410;SDS011;67706;51.074;-1.796;2023-07-29T11:44:36;6.75;;;0.77;;
78410;SDS011;67706;51.074;-1.796;2023-07-29T11:47:05;3.28;;;0.70;;
78410;SDS011;67706;51.074;-1.796;2023-07-29T11:49:34;3.95;;;0.80;;
78410;SDS011;67706;51.074;-1.796;2023-07-29T11:52:01;4.20;;;0.98;;
78410;SDS011;67706;51.074;-1.796;2023-07-29T11:54:29;2.67;;;0.60;;
78410;SDS011;67706;51.074;-1.796;2023-07-29T11:56:56;2.33;;;0.47;;
78410;SDS011;67706;51.074;-1.796;2023-07-29T11:59:23;3.10;;;0.70;;
78410;SDS011;67706;51.074;-1.796;2023-07-29T12:01:50;2.20;;;0.80;;
78410;SDS011;67706;51.074;-1.796;2023-07-29T12:04:17;3.75;;;1.02;;
78410;SDS011;67706;51.074;-1.796;2023-07-29T12:06:46;3.03;;;1.05;;
78410;SDS011;67706;51.074;-1.796;2023-07-29T12:09:13;3.95;;;0.68;;
78410;SDS011;67706;51.074;-1.796;2023-07-29T12:11:39;6.50;;;1.02;;
78410;SDS011;67706;51.074;-1.796;2023-07-29T12:14:07;4.03;;;0.50;;
78410;SDS011;67706;51.074;-1.796;2023-07-29T12:16:39;3.28;;;0.60;;
78410;SDS011;67706;51.074;-1.796;2023-07-29T12:19:07;0.95;;;0.50;;
78410;SDS011;67706;51.074;-1.796;2023-07-29T12:21:33;1.50;;;0.45;;
78410;SDS011;67706;51.074;-1.796;2023-07-29T12:24:03;2.55;;;0.55;;
78410;SDS011;67706;51.074;-1.796;2023-07-29T12:26:31;3.13;;;0.63;;
78410;SDS011;67706;51.074;-1.796;2023-07-29T12:28:57;4.05;;;1.45;;
78410;SDS011;67706;51.074;-1.796;2023-07-29T12:31:30;3.60;;;0.90;;
78410;SDS011;67706;51.074;-1.796;2023-07-29T12:33:58;2.45;;;0.57;;
78410;SDS011;67706;51.074;-1.796;2023-07-29T12:36:27;2.92;;;0.57;;
78410;SDS011;67706;51.074;-1.796;2023-07-29T12:39:11;4.82;;;0.70;;
78410;SDS011;67706;51.074;-1.796;2023-07-29T12:41:42;2.00;;;0.50;;
78410;SDS011;67706;51.074;-1.796;2023-07-29T12:44:09;3.40;;;0.90;;
78410;SDS011;67706;51.074;-1.796;2023-07-29T12:46:35;4.05;;;1.15;;
78410;SDS011;67706;51.074;-1.796;2023-07-29T12:49:02;0.65;;;0.40;;
78410;SDS011;67706;51.074;-1.796;2023-07-29T12:51:29;2.00;;;0.50;;
78410;SDS011;67706;51.074;-1.796;2023-07-29T12:53:56;1.60;;;0.70;;
78410;SDS011;67706;51.074;-1.796;2023-07-29T12:56:24;3.25;;;0.75;;
78410;SDS011;67706;51.074;-1.796;2023-07-29T12:58:51;2.17;;;0.60;;
78410;SDS011;67706;51.074;-1.796;2023-07-29T13:01:18;2.83;;;0.52;;
78410;SDS011;67706;51.074;-1.796;2023-07-29T13:03:45;1.75;;;0.60;;
78410;SDS011;67706;51.074;-1.796;2023-07-29T13:06:11;3.42;;;0.90;;
78410;SDS011;67706;51.074;-1.796;2023-07-29T13:08:38;1.92;;;0.50;;
78410;SDS011;67706;51.074;-1.796;2023-07-29T13:11:05;4.20;;;0.70;;
78410;SDS011;67706;51.074;-1.796;2023-07-29T13:13:33;5.80;;;0.85;;
78410;SDS011;67706;51.074;-1.796;2023-07-29T13:16:00;6.18;;;0.90;;
78410;SDS011;67706;51.074;-1.796;2023-07-29T13:18:27;3.40;;;0.55;;
78410;SDS011;67706;51.074;-1.796;2023-07-29T13:20:54;2.30;;;0.70;;
78410;SDS011;67706;51.074;-1.796;2023-07-29T13:23:21;3.28;;;0.75;;
78410;SDS011;67706;51.074;-1.796;2023-07-29T13:25:47;2.70;;;0.55;;
78410;SDS011;67706;51.074;-1.796;2023-07-29T13:28:15;4.50;;;0.70;;
78410;SDS011;67706;51.074;-1.796;2023-07-29T13:30:43;2.58;;;0.70;;
78410;SDS011;67706;51.074;-1.796;2023-07-29T13:33:10;3.95;;;0.60;;
78410;SDS011;67706;51.074;-1.796;2023-07-29T13:35:37;2.05;;;0.60;;
78410;SDS011;67706;51.074;-1.796;2023-07-29T13:38:03;4.50;;;0.70;;
78410;SDS011;67706;51.074;-1.796;2023-07-29T13:40:31;5.53;;;0.98;;
78410;SDS011;67706;51.074;-1.796;2023-07-29T13:42:58;4.28;;;0.80;;
78410;SDS011;67706;51.074;-1.796;2023-07-29T13:45:24;1.60;;;0.50;;
78410;SDS011;67706;51.074;-1.796;2023-07-29T13:47:52;5.88;;;0.90;;
78410;SDS011;67706;51.074;-1.796;2023-07-29T13:50:19;3.60;;;1.05;;
78410;SDS011;67706;51.074;-1.796;2023-07-29T13:52:46;5.50;;;1.80;;
78410;SDS011;67706;51.074;-1.796;2023-07-29T13:55:12;2.55;;;0.90;;
78410;SDS011;67706;51.074;-1.796;2023-07-29T13:57:39;4.18;;;1.13;;
78410;SDS011;67706;51.074;-1.796;2023-07-29T14:00:06;6.32;;;0.95;;
78410;SDS011;67706;51.074;-1.796;2023-07-29T14:02:34;4.68;;;1.13;;
78410;SDS011;67706;51.074;-1.796;2023-07-29T14:05:02;4.38;;;0.70;;
78410;SDS011;67706;51.074;-1.796;2023-07-29T14:07:29;3.40;;;1.00;;
78410;SDS011;67706;51.074;-1.796;2023-07-29T14:09:56;1.63;;;0.68;;
78410;SDS011;67706;51.074;-1.796;2023-07-29T14:12:22;4.55;;;1.30;;
78410;SDS011;67706;51.074;-1.796;2023-07-29T14:14:49;3.35;;;0.82;;
78410;SDS011;67706;51.074;-1.796;2023-07-29T14:17:15;5.72;;;1.13;;
78410;SDS011;67706;51.074;-1.796;2023-07-29T14:19:42;6.03;;;1.48;;
78410;SDS011;67706;51.074;-1.796;2023-07-29T14:22:10;4.00;;;1.00;;
78410;SDS011;67706;51.074;-1.796;2023-07-29T14:24:37;2.80;;;0.70;;
78410;SDS011;67706;51.074;-1.796;2023-07-29T14:27:04;4.03;;;0.95;;
78410;SDS011;67706;51.074;-1.796;2023-07-29T14:29:31;4.03;;;0.90;;
78410;SDS011;67706;51.074;-1.796;2023-07-29T14:31:58;5.40;;;1.23;;
78410;SDS011;67706;51.074;-1.796;2023-07-29T14:34:24;5.07;;;1.00;;
78410;SDS011;67706;51.074;-1.796;2023-07-29T14:36:51;3.15;;;0.80;;
78410;SDS011;67706;51.074;-1.796;2023-07-29T14:39:19;5.18;;;0.80;;
78410;SDS011;67706;51.074;-1.796;2023-07-29T14:41:46;6.63;;;1.65;;